Time;durP1;ratioP1;P1;durP2;ratioP2;P2;SDS_P1;SDS_P2;PMS_P1;PMS_P2;Temp;Humidity;BMP_temperature;BMP_pressure;BME280_temperature;BME280_humidity;BME280_pressure;Samples;Min_cycle;Max_cycle;Signal;HPM_P1;HPM_P2
2023/07/17 00:00:30;;;;;;;;;;;;;;;16.69;79.49;101485.53;4952125;29;20024;-78
2023/07/17 00:02:56;;;;;;;;;;;;;;;16.65;77.17;101481.22;4952056;29;20157;-78
2023/07/17 00:05:22;;;;;;;;;;;;;;;16.64;78.10;101483.94;4935926;29;19985;-78
2023/07/17 00:07:47;;;;;;;;;;;;;;;16.56;80.60;101474.41;4951261;29;19933;-78
2023/07/17 00:10:13;;;;;;;;;;;;;;;16.51;79.85;101486.19;4953253;28;19923;-78
2023/07/17 00:12:39;;;;;;;;;;;;;;;16.46;79.13;101478.34;4936433;29;19915;-78
2023/07/17 00:15:05;;;;;;;;;;;;;;;16.45;79.32;101483.78;4951852;29;20009;-78
2023/07/17 00:17:30;;;;;;;;;;;;;;;16.46;75.91;101481.03;4934551;29;20388;-78
2023/07/17 00:19:56;;;;;;;;;;;;;;;16.41;81.34;101485.66;4932973;29;19938;-78
2023/07/17 00:22:22;;;;;;;;;;;;;;;16.41;81.46;101491.00;4934303;29;19926;-78
2023/07/17 00:24:49;;;;;;;;;;;;;;;16.39;81.88;101487.50;4934010;29;19919;-78
2023/07/17 00:27:14;;;;;;;;;;;;;;;16.36;82.77;101489.44;4944791;29;19918;-78
2023/07/17 00:29:40;;;;;;;;;;;;;;;16.33;79.24;101485.94;4934392;29;20286;-78
2023/07/17 00:32:06;;;;;;;;;;;;;;;16.34;79.30;101484.13;4934049;29;19941;-78
2023/07/17 00:34:31;;;;;;;;;;;;;;;16.31;82.62;101479.78;4931523;29;19923;-78
2023/07/17 00:36:57;;;;;;;;;;;;;;;16.24;82.33;101480.03;4932510;29;19926;-78
2023/07/17 00:39:23;;;;;;;;;;;;;;;16.19;83.78;101476.66;4932425;29;19946;-78
2023/07/17 00:41:49;;;;;;;;;;;;;;;16.17;83.21;101490.09;4932728;29;20293;-78
2023/07/17 00:44:14;;;;;;;;;;;;;;;16.16;83.48;101490.13;4916333;29;20018;-78
2023/07/17 00:46:40;;;;;;;;;;;;;;;16.11;83.14;101491.16;4934221;29;19933;-78
2023/07/17 00:49:06;;;;;;;;;;;;;;;16.06;82.28;101492.25;4933853;29;19923;-78
2023/07/17 00:51:32;;;;;;;;;;;;;;;16.02;84.57;101490.59;4916129;29;20295;-78
2023/07/17 00:53:58;;;;;;;;;;;;;;;16.02;81.36;101496.84;4932384;29;19918;-78
2023/07/17 00:56:25;;;;;;;;;;;;;;;15.99;83.57;101494.25;4932699;29;19922;-79
2023/07/17 00:58:51;;;;;;;;;;;;;;;15.99;81.85;101494.25;4917179;29;20370;-79
2023/07/17 01:01:16;;;;;;;;;;;;;;;15.94;82.92;101495.34;4919270;29;19919;-78
2023/07/17 01:03:42;;;;;;;;;;;;;;;15.89;83.32;101506.19;4950279;29;19970;-78
2023/07/17 01:06:07;;;;;;;;;;;;;;;15.86;82.42;101504.47;4934493;29;19923;-78
2023/07/17 01:08:33;;;;;;;;;;;;;;;15.78;84.03;101503.00;4942356;29;20025;-78
2023/07/17 01:11:00;;;;;;;;;;;;;;;15.77;83.86;101511.91;4942781;29;20048;-78
2023/07/17 01:13:25;;;;;;;;;;;;;;;15.72;84.85;101513.88;4932701;29;19945;-79
2023/07/17 01:15:51;;;;;;;;;;;;;;;15.71;81.75;101512.13;4933726;29;19923;-78
2023/07/17 01:18:16;;;;;;;;;;;;;;;15.67;82.52;101513.97;4935442;29;19922;-78
2023/07/17 01:20:41;;;;;;;;;;;;;;;15.63;83.14;101515.03;4952784;29;19953;-79
2023/07/17 01:23:09;;;;;;;;;;;;;;;15.60;84.23;101512.44;4919811;29;20006;-78
2023/07/17 01:25:34;;;;;;;;;;;;;;;15.55;85.04;101511.72;4951380;29;20298;-78
2023/07/17 01:28:01;;;;;;;;;;;;;;;15.49;84.66;101520.78;4919733;29;20345;-77
2023/07/17 01:30:26;;;;;;;;;;;;;;;15.47;84.58;101518.16;4951103;29;19918;-78
2023/07/17 01:32:51;;;;;;;;;;;;;;;15.44;84.12;101522.72;4936840;29;19958;-78
2023/07/17 01:35:17;;;;;;;;;;;;;;;15.46;81.77;101521.75;4956498;29;20427;-78
2023/07/17 01:37:42;;;;;;;;;;;;;;;15.38;84.91;101526.47;4951139;29;20009;-78
2023/07/17 01:40:16;;;;;;;;;;;;;;;15.34;83.57;101518.59;4922888;29;20289;-77
2023/07/17 01:42:41;;;;;;;;;;;;;;;15.30;82.97;101524.94;4938867;29;20029;-77
2023/07/17 01:45:07;;;;;;;;;;;;;;;15.22;84.49;101525.19;4938711;29;20326;-78
2023/07/17 01:47:33;;;;;;;;;;;;;;;15.20;85.60;101525.22;4956066;29;19929;-77
2023/07/17 01:49:59;;;;;;;;;;;;;;;15.18;84.61;101520.84;4938404;29;20013;-78
2023/07/17 01:52:24;;;;;;;;;;;;;;;15.15;84.64;101520.94;4938526;29;19934;-78
2023/07/17 01:54:49;;;;;;;;;;;;;;;15.12;84.08;101521.03;4956049;29;19926;-78
2023/07/17 01:57:15;;;;;;;;;;;;;;;15.05;84.28;101521.22;4955807;29;20030;-78
2023/07/17 01:59:40;;;;;;;;;;;;;;;15.02;83.86;101518.66;4954146;28;19927;-78
2023/07/17 02:02:06;;;;;;;;;;;;;;;14.98;83.37;101521.44;4954137;29;19923;-78
2023/07/17 02:04:31;;;;;;;;;;;;;;;14.95;84.63;101526.88;4955371;29;19922;-78
2023/07/17 02:06:57;;;;;;;;;;;;;;;14.92;83.38;101519.84;4954066;29;19949;-78
2023/07/17 02:09:25;;;;;;;;;;;;;;;14.91;84.66;101523.44;4951985;28;19952;-79
2023/07/17 02:11:50;;;;;;;;;;;;;;;14.90;85.85;101527.00;4955607;29;19938;-78
2023/07/17 02:14:16;;;;;;;;;;;;;;;14.87;84.98;101527.09;4937779;29;19967;-78
2023/07/17 02:16:42;;;;;;;;;;;;;;;14.83;82.38;101526.28;4923913;29;19935;-79
2023/07/17 02:19:07;;;;;;;;;;;;;;;14.81;83.24;101530.81;4934481;29;20483;-79
2023/07/17 02:21:32;;;;;;;;;;;;;;;14.77;83.34;101525.63;4934582;29;19966;-79
2023/07/17 02:23:59;;;;;;;;;;;;;;;14.73;84.61;101532.81;4934430;29;19931;-78
2023/07/17 02:26:25;;;;;;;;;;;;;;;14.68;84.74;101531.19;4934660;29;20013;-78
2023/07/17 02:28:50;;;;;;;;;;;;;;;14.63;86.07;101544.66;4934509;29;20394;-78
2023/07/17 02:31:16;;;;;;;;;;;;;;;14.60;84.28;101531.41;4923793;29;19923;-78
2023/07/17 02:33:41;;;;;;;;;;;;;;;14.59;87.95;101535.88;4917906;29;20002;-78
2023/07/17 02:36:09;;;;;;;;;;;;;;;14.56;85.57;101545.72;4934496;29;19926;-78
2023/07/17 02:38:34;;;;;;;;;;;;;;;14.55;86.93;101546.66;4935859;29;19921;-78
2023/07/17 02:41:00;;;;;;;;;;;;;;;14.49;89.28;101538.78;4934163;29;19990;-78
2023/07/17 02:43:27;;;;;;;;;;;;;;;14.45;88.02;101543.34;4934122;29;19918;-78
2023/07/17 02:45:52;;;;;;;;;;;;;;;14.43;88.47;101541.63;4933677;29;19955;-78
2023/07/17 02:48:17;;;;;;;;;;;;;;;14.40;88.06;101538.13;4935721;29;19922;-79
2023/07/17 02:50:43;;;;;;;;;;;;;;;14.39;87.08;101546.16;4935622;29;19957;-79
2023/07/17 02:53:08;;;;;;;;;;;;;;;14.38;87.08;101541.75;4935769;29;19930;-79
2023/07/17 02:55:34;;;;;;;;;;;;;;;14.40;88.04;101545.25;4949988;29;19923;-78
2023/07/17 02:57:59;;;;;;;;;;;;;;;14.33;90.08;101539.19;4918207;29;19997;-79
2023/07/17 03:00:25;;;;;;;;;;;;;;;14.29;88.19;101545.53;4933749;29;19927;-78
2023/07/17 03:02:50;;;;;;;;;;;;;;;14.26;88.29;101550.06;4949824;29;20074;-78
2023/07/17 03:05:16;;;;;;;;;;;;;;;14.29;87.76;101552.63;4933931;29;19923;-79
2023/07/17 03:07:43;;;;;;;;;;;;;;;14.26;90.67;101552.72;4933207;29;19918;-78
2023/07/17 03:10:09;;;;;;;;;;;;;;;14.28;89.50;101556.22;4933665;29;19923;-78
2023/07/17 03:12:35;;;;;;;;;;;;;;;14.23;85.68;101559.00;4935489;29;20062;-78
2023/07/17 03:15:04;;;;;;;;;;;;;;;14.23;86.80;101559.00;4918478;29;19925;-78
2023/07/17 03:17:30;;;;;;;;;;;;;;;14.25;87.05;101570.50;4954328;29;19926;-78
2023/07/17 03:19:55;;;;;;;;;;;;;;;14.22;89.98;101567.94;4952429;29;19926;-77
2023/07/17 03:22:20;;;;;;;;;;;;;;;14.18;88.35;101567.09;4933633;29;19923;-77
2023/07/17 03:24:46;;;;;;;;;;;;;;;14.22;87.63;101567.94;4949902;29;20386;-77
2023/07/17 03:27:11;;;;;;;;;;;;;;;14.17;91.19;101576.03;4936521;29;19973;-77
2023/07/17 03:29:37;;;;;;;;;;;;;;;14.14;91.03;101564.56;4952622;29;20281;-77
2023/07/17 03:32:03;;;;;;;;;;;;;;;14.10;89.85;101562.91;4954131;29;19923;-77
2023/07/17 03:34:28;;;;;;;;;;;;;;;14.08;89.22;101565.59;4968427;28;20666;-77
2023/07/17 03:36:54;;;;;;;;;;;;;;;14.06;89.99;101564.75;4950096;29;20032;-77
2023/07/17 03:39:19;;;;;;;;;;;;;;;14.03;90.43;101569.28;4952724;29;19927;-77
2023/07/17 03:41:45;;;;;;;;;;;;;;;14.02;90.49;101571.09;4952911;29;20322;-78
2023/07/17 03:44:12;;;;;;;;;;;;;;;14.00;87.37;101566.72;4950901;29;19923;-77
2023/07/17 03:46:39;;;;;;;;;;;;;;;13.97;88.58;101567.63;4964149;28;20307;-78
2023/07/17 03:49:05;;;;;;;;;;;;;;;13.96;89.00;101565.91;4953031;29;20013;-77
2023/07/17 03:51:30;;;;;;;;;;;;;;;13.94;90.92;101563.25;4953743;29;19970;-77
2023/07/17 03:53:56;;;;;;;;;;;;;;;13.90;92.02;101564.25;4953335;29;19922;-77
2023/07/17 03:56:21;;;;;;;;;;;;;;;13.92;91.26;101569.53;4965469;28;19934;-77
2023/07/17 03:58:48;;;;;;;;;;;;;;;13.91;93.45;101576.66;4920367;29;20407;-78
2023/07/17 04:01:13;;;;;;;;;;;;;;;13.90;92.43;101574.91;4936102;29;19927;-77
2023/07/17 04:03:43;;;;;;;;;;;;;;;13.89;91.26;101581.13;4951908;29;20012;-77
2023/07/17 04:06:08;;;;;;;;;;;;;;;13.87;92.29;101576.75;4952603;29;20093;-78
2023/07/17 04:08:34;;;;;;;;;;;;;;;13.86;91.50;101586.53;4936054;28;20259;-78
2023/07/17 04:11:00;;;;;;;;;;;;;;;13.86;89.79;101585.66;4936394;29;19922;-79
2023/07/17 04:13:26;;;;;;;;;;;;;;;13.83;93.24;101593.72;4952284;29;19933;-78
2023/07/17 04:15:52;;;;;;;;;;;;;;;13.81;91.20;101601.75;4932436;29;19942;-79
2023/07/17 04:18:18;;;;;;;;;;;;;;;13.77;93.06;101589.41;4932686;29;20009;-78
2023/07/17 04:20:43;;;;;;;;;;;;;;;13.77;91.54;101594.72;4916786;29;20026;-78
2023/07/17 04:23:10;;;;;;;;;;;;;;;13.73;92.75;101590.41;4932649;29;20357;-78
2023/07/17 04:25:39;;;;;;;;;;;;;;;13.76;91.83;101598.31;4948222;29;20021;-79
2023/07/17 04:28:04;;;;;;;;;;;;;;;13.73;91.63;101601.94;4916655;29;20117;-78
2023/07/17 04:30:30;;;;;;;;;;;;;;;13.74;91.20;101597.47;4901053;29;20374;-79
2023/07/17 04:32:55;;;;;;;;;;;;;;;13.73;92.53;101599.25;4916788;29;19977;-78
2023/07/17 04:35:21;;;;;;;;;;;;;;;13.73;93.29;101601.06;4900652;29;20347;-79
2023/07/17 04:37:47;;;;;;;;;;;;;;;13.73;93.71;101606.38;4916830;29;20021;-78
2023/07/17 04:40:13;;;;;;;;;;;;;;;13.73;94.27;101611.69;4932060;29;19927;-78
2023/07/17 04:42:39;;;;;;;;;;;;;;;13.74;93.00;101614.31;4932342;29;19923;-78
2023/07/17 04:45:05;;;;;;;;;;;;;;;13.75;93.29;101612.56;4948274;29;19922;-79
2023/07/17 04:47:31;;;;;;;;;;;;;;;13.74;92.42;101616.97;4948039;29;19970;-78
2023/07/17 04:49:57;;;;;;;;;;;;;;;13.74;94.70;101622.28;4923686;29;19950;-78
2023/07/17 04:52:25;;;;;;;;;;;;;;;13.80;92.44;101623.97;4927943;29;19923;-78
2023/07/17 04:54:50;;;;;;;;;;;;;;;13.84;92.28;101624.75;4916394;29;20326;-78
2023/07/17 04:57:17;;;;;;;;;;;;;;;13.84;92.34;101627.41;4932432;29;19931;-78
2023/07/17 04:59:42;;;;;;;;;;;;;;;13.88;91.81;101623.78;4932052;29;19927;-78
2023/07/17 05:02:08;;;;;;;;;;;;;;;13.88;93.13;101629.97;4931232;29;19991;-78
2023/07/17 05:04:33;;;;;;;;;;;;;;;13.90;91.63;101622.84;4900281;29;20025;-78
2023/07/17 05:07:00;;;;;;;;;;;;;;;13.92;91.66;101630.78;4916805;29;20338;-79
2023/07/17 05:09:26;;;;;;;;;;;;;;;13.97;92.00;101636.88;4949395;29;20028;-78
2023/07/17 05:11:51;;;;;;;;;;;;;;;14.02;91.65;101634.09;4936069;29;19970;-78
2023/07/17 05:14:17;;;;;;;;;;;;;;;14.08;91.21;101636.63;4935711;29;19984;-79
2023/07/17 05:16:42;;;;;;;;;;;;;;;14.11;91.79;101633.88;4925237;29;19935;-78
2023/07/17 05:19:08;;;;;;;;;;;;;;;14.16;91.90;101638.19;4935892;29;19931;-78
2023/07/17 05:21:35;;;;;;;;;;;;;;;14.21;92.53;101632.75;4935789;29;19926;-78
2023/07/17 05:24:01;;;;;;;;;;;;;;;14.26;91.69;101641.50;4935790;29;19923;-78
2023/07/17 05:26:27;;;;;;;;;;;;;;;14.32;91.95;101643.16;4935824;29;20359;-78
2023/07/17 05:28:53;;;;;;;;;;;;;;;14.34;90.84;101639.56;4920255;29;19994;-78
2023/07/17 05:31:21;;;;;;;;;;;;;;;14.38;91.20;101651.84;4940711;29;20396;-78
2023/07/17 05:33:47;;;;;;;;;;;;;;;14.46;90.24;101646.34;4923868;29;20298;-77
2023/07/17 05:36:12;;;;;;;;;;;;;;;14.50;90.94;101648.03;4937085;29;19918;-78
2023/07/17 05:38:38;;;;;;;;;;;;;;;14.56;90.43;101653.25;4935529;29;19938;-77
2023/07/17 05:41:05;;;;;;;;;;;;;;;14.61;90.68;101653.09;4935228;29;20357;-78
2023/07/17 05:43:34;;;;;;;;;;;;;;;14.68;90.02;101653.81;4936782;29;19923;-77
2023/07/17 05:46:19;;;;;;;;;;;;;;;14.74;91.06;101659.03;4954546;28;19933;-77
2023/07/17 05:48:45;;;;;;;;;;;;;;;14.82;91.02;101662.34;4920246;29;19966;-78
2023/07/17 05:51:11;;;;;;;;;;;;;;;14.89;89.93;101663.94;4935813;29;19977;-77
2023/07/17 05:53:36;;;;;;;;;;;;;;;14.93;90.60;101662.06;4922208;29;19931;-78
2023/07/17 05:56:02;;;;;;;;;;;;;;;15.02;90.47;101661.81;4933554;29;19922;-77
2023/07/17 05:58:30;;;;;;;;;;;;;;;15.08;89.06;101674.09;4903906;29;20016;-77
2023/07/17 06:00:56;;;;;;;;;;;;;;;15.11;89.55;101671.34;4938211;29;19970;-77
2023/07/17 06:03:21;;;;;;;;;;;;;;;15.18;89.22;101676.50;4932904;29;19986;-77
2023/07/17 06:05:46;;;;;;;;;;;;;;;15.26;89.28;101670.94;4937121;29;19974;-77
2023/07/17 06:08:12;;;;;;;;;;;;;;;15.40;87.58;101675.88;4917146;29;20286;-77
2023/07/17 06:10:38;;;;;;;;;;;;;;;15.37;88.28;101673.28;4935690;29;20286;-77
2023/07/17 06:13:03;;;;;;;;;;;;;;;15.42;88.49;101676.69;4936017;29;20382;-77
2023/07/17 06:15:28;;;;;;;;;;;;;;;15.52;87.54;101679.97;4937316;29;19946;-77
2023/07/17 06:17:54;;;;;;;;;;;;;;;15.53;87.38;101685.28;4934043;29;20050;-77
2023/07/17 06:20:20;;;;;;;;;;;;;;;15.59;87.25;101695.78;4930782;29;19927;-77
2023/07/17 06:22:46;;;;;;;;;;;;;;;15.67;85.71;101690.19;4930421;29;19957;-77
2023/07/17 06:25:12;;;;;;;;;;;;;;;15.67;86.16;101693.75;4900250;29;20261;-77
2023/07/17 06:27:37;;;;;;;;;;;;;;;15.73;86.68;101702.56;4934890;29;19933;-77
2023/07/17 06:30:03;;;;;;;;;;;;;;;15.82;85.26;101703.13;4934168;29;19929;-77
2023/07/17 06:32:29;;;;;;;;;;;;;;;15.86;84.69;101706.59;4920260;29;19933;-78
2023/07/17 06:34:54;;;;;;;;;;;;;;;15.92;85.34;101701.06;4915666;29;19919;-78
2023/07/17 06:37:19;;;;;;;;;;;;;;;16.04;83.92;101705.16;4915212;29;19946;-79
2023/07/17 06:39:45;;;;;;;;;;;;;;;16.10;83.35;101703.19;4909660;29;19927;-79
2023/07/17 06:42:10;;;;;;;;;;;;;;;16.10;83.31;101705.84;4932688;29;19923;-77
2023/07/17 06:44:36;;;;;;;;;;;;;;;16.13;83.31;101710.22;4916945;29;19986;-77
2023/07/17 06:47:01;;;;;;;;;;;;;;;16.17;83.02;101717.22;4928740;29;19930;-78
2023/07/17 06:49:26;;;;;;;;;;;;;;;16.11;82.49;101715.59;4930299;29;19923;-77
2023/07/17 06:51:52;;;;;;;;;;;;;;;16.13;82.26;101716.44;4926321;29;20069;-77
2023/07/17 06:54:17;;;;;;;;;;;;;;;16.15;83.26;101720.84;4926065;29;19942;-77
2023/07/17 06:56:42;;;;;;;;;;;;;;;16.20;83.00;101721.59;4925161;29;20010;-77
2023/07/17 06:59:08;;;;;;;;;;;;;;;16.23;82.90;101732.19;4923122;29;19990;-77
2023/07/17 07:01:33;;;;;;;;;;;;;;;16.25;82.63;101725.88;4909121;29;19923;-77
2023/07/17 07:03:58;;;;;;;;;;;;;;;16.33;81.65;101726.50;4926258;29;19935;-77
2023/07/17 07:06:24;;;;;;;;;;;;;;;16.38;82.46;101728.16;4928864;29;19942;-77
2023/07/17 07:08:49;;;;;;;;;;;;;;;16.43;81.97;101729.75;4927653;29;19920;-77
2023/07/17 07:11:14;;;;;;;;;;;;;;;16.51;82.20;101737.53;4923677;29;19934;-77
2023/07/17 07:13:42;;;;;;;;;;;;;;;16.69;80.79;101734.25;4922962;29;20536;-77
2023/07/17 07:16:07;;;;;;;;;;;;;;;16.90;79.13;101747.88;4938441;29;19927;-78
2023/07/17 07:18:33;;;;;;;;;;;;;;;16.89;79.43;101744.34;4953763;29;20393;-77
2023/07/17 07:20:58;;;;;;;;;;;;;;;16.96;78.46;101742.28;4949909;29;19942;-76
2023/07/17 07:23:24;;;;;;;;;;;;;;;16.98;77.93;101744.00;4953808;29;20262;-77
2023/07/17 07:25:49;;;;;;;;;;;;;;;17.04;77.40;101747.41;4954985;28;19929;-77
2023/07/17 07:28:15;;;;;;;;;;;;;;;17.04;77.33;101752.78;4952509;29;20578;-77
2023/07/17 07:30:40;;;;;;;;;;;;;;;16.98;78.07;101753.81;4934958;29;19934;-77
2023/07/17 07:33:06;;;;;;;;;;;;;;;17.08;77.11;101771.31;4951061;29;20249;-77
2023/07/17 07:35:31;;;;;;;;;;;;;;;17.16;76.84;101760.34;4945194;28;19919;-76
2023/07/17 07:37:57;;;;;;;;;;;;;;;17.14;75.19;101759.53;4952623;29;19984;-77
2023/07/17 07:40:22;;;;;;;;;;;;;;;17.20;75.35;101756.63;4952517;29;20308;-77
2023/07/17 07:42:48;;;;;;;;;;;;;;;17.16;75.69;101760.34;4943071;29;20360;-76
2023/07/17 07:45:13;;;;;;;;;;;;;;;17.19;76.37;101766.47;4943389;29;20040;-76
2023/07/17 07:47:39;;;;;;;;;;;;;;;17.28;75.49;101770.63;4939838;29;20349;-76
2023/07/17 07:50:05;;;;;;;;;;;;;;;17.36;76.21;101778.41;4952357;29;19926;-76
2023/07/17 07:52:31;;;;;;;;;;;;;;;17.47;75.36;101770.00;4950026;29;19941;-76
2023/07/17 07:54:56;;;;;;;;;;;;;;;17.60;74.51;101765.94;4920427;29;20358;-76
2023/07/17 07:57:22;;;;;;;;;;;;;;;17.76;73.74;101767.13;4946601;29;19926;-75
2023/07/17 07:59:50;;;;;;;;;;;;;;;17.86;73.35;101767.69;4948816;29;19929;-76
2023/07/17 08:02:15;;;;;;;;;;;;;;;18.02;73.00;101774.19;4951210;29;19966;-76
2023/07/17 08:04:41;;;;;;;;;;;;;;;18.21;73.15;101773.50;4953483;29;20389;-76
2023/07/17 08:07:07;;;;;;;;;;;;;;;18.44;71.68;101777.94;4947888;29;19929;-76
2023/07/17 08:09:32;;;;;;;;;;;;;;;18.39;68.18;101770.09;4933724;29;19946;-77
2023/07/17 08:11:58;;;;;;;;;;;;;;;18.35;70.29;101781.88;4943391;29;19926;-76
2023/07/17 08:14:23;;;;;;;;;;;;;;;18.42;70.56;101786.06;4950764;29;20400;-77
2023/07/17 08:16:49;;;;;;;;;;;;;;;18.52;70.25;101783.91;4953413;29;19931;-77
2023/07/17 08:19:15;;;;;;;;;;;;;;;18.63;70.31;101778.09;4951230;29;20219;-77
2023/07/17 08:21:41;;;;;;;;;;;;;;;18.76;69.44;101779.34;4954117;29;19919;-77
2023/07/17 08:24:06;;;;;;;;;;;;;;;18.66;68.61;101770.78;4951918;29;19931;-77
2023/07/17 08:26:31;;;;;;;;;;;;;;;18.62;68.15;101776.31;4953195;29;19997;-77
2023/07/17 08:28:58;;;;;;;;;;;;;;;18.73;67.70;101781.28;4933311;29;19970;-77
2023/07/17 08:31:24;;;;;;;;;;;;;;;18.83;68.35;101780.84;4930142;29;19973;-76
2023/07/17 08:33:49;;;;;;;;;;;;;;;18.99;67.58;101785.56;4931140;29;19970;-76
2023/07/17 08:36:15;;;;;;;;;;;;;;;19.07;66.28;101776.28;4919237;29;20361;-77
2023/07/17 08:38:40;;;;;;;;;;;;;;;19.18;63.74;101781.19;4931736;28;19969;-76
2023/07/17 08:41:06;;;;;;;;;;;;;;;19.21;64.09;101789.09;4945724;28;19934;-77
2023/07/17 08:43:33;;;;;;;;;;;;;;;19.16;63.82;101783.03;4943853;28;19926;-77
2023/07/17 08:45:59;;;;;;;;;;;;;;;19.06;65.39;101789.75;4942404;28;19970;-76
2023/07/17 08:48:25;;;;;;;;;;;;;;;19.31;64.78;101785.09;4931311;29;19923;-77
2023/07/17 08:50:51;;;;;;;;;;;;;;;19.51;64.22;101794.97;4923929;29;19926;-77
2023/07/17 08:53:17;;;;;;;;;;;;;;;19.48;62.73;101802.28;4940935;28;19971;-77
2023/07/17 08:55:43;;;;;;;;;;;;;;;19.43;62.30;101793.53;4941893;28;19926;-76
2023/07/17 08:58:10;;;;;;;;;;;;;;;19.36;62.73;101800.97;4943766;28;19941;-77
2023/07/17 09:00:36;;;;;;;;;;;;;;;19.33;60.80;101793.94;4939689;29;19923;-77
2023/07/17 09:03:02;;;;;;;;;;;;;;;19.37;61.67;101788.44;4942931;29;19934;-76
2023/07/17 09:05:28;;;;;;;;;;;;;;;19.31;60.17;101789.56;4930795;28;19923;-77
2023/07/17 09:07:53;;;;;;;;;;;;;;;19.29;62.02;101786.09;4931009;29;19937;-77
2023/07/17 09:10:19;;;;;;;;;;;;;;;19.44;60.51;101792.63;4927745;29;19953;-77
2023/07/17 09:12:53;;;;;;;;;;;;;;;19.64;60.07;101797.97;4946708;28;19990;-77
2023/07/17 09:15:19;;;;;;;;;;;;;;;19.68;60.87;101790.66;4942027;28;19922;-78
2023/07/17 09:17:44;;;;;;;;;;;;;;;19.62;60.69;101785.56;4946775;28;19923;-77
2023/07/17 09:20:11;;;;;;;;;;;;;;;19.70;59.39;101792.34;4952015;29;20013;-77
2023/07/17 09:22:38;;;;;;;;;;;;;;;19.66;59.89;101798.78;4946014;29;20001;-78
2023/07/17 09:25:04;;;;;;;;;;;;;;;19.75;60.09;101798.38;4945808;29;20358;-78
2023/07/17 09:27:29;;;;;;;;;;;;;;;19.71;60.64;101796.78;4950111;29;19924;-78
2023/07/17 09:29:55;;;;;;;;;;;;;;;19.93;60.49;101799.38;4951882;29;19923;-76
2023/07/17 09:32:22;;;;;;;;;;;;;;;20.05;59.46;101802.44;4952754;29;19915;-76
2023/07/17 09:35:03;;;;;;;;;;;;;;;20.26;59.19;101803.25;4951904;29;19926;-78
2023/07/17 09:37:31;;;;;;;;;;;;;;;20.44;56.47;101801.50;4950040;29;19993;-78
2023/07/17 09:40:01;;;;;;;;;;;;;;;20.46;57.77;101799.63;4930742;29;20261;-78
2023/07/17 09:42:26;;;;;;;;;;;;;;;20.67;56.43;101795.03;4952331;29;19946;-78
2023/07/17 09:44:52;;;;;;;;;;;;;;;20.77;57.10;101807.09;4944449;28;19927;-78
2023/07/17 09:47:21;;;;;;;;;;;;;;;20.78;55.70;101798.09;4951929;29;19925;-76
2023/07/17 09:49:50;;;;;;;;;;;;;;;20.90;56.40;101800.16;4951992;29;20008;-77
2023/07/17 09:52:15;;;;;;;;;;;;;;;20.95;54.50;101798.13;4935239;29;19969;-77
2023/07/17 09:54:42;;;;;;;;;;;;;;;20.81;54.01;101803.31;4937086;29;20346;-76
2023/07/17 09:57:08;;;;;;;;;;;;;;;20.60;53.40;101811.50;4938712;29;20315;-77
2023/07/17 09:59:35;;;;;;;;;;;;;;;20.41;52.57;101808.78;4955589;29;20009;-78
2023/07/17 10:02:02;;;;;;;;;;;;;;;20.32;54.26;101805.66;4955634;29;19918;-77
2023/07/17 10:04:32;;;;;;;;;;;;;;;20.37;54.73;101806.28;4955253;29;20403;-76
2023/07/17 10:06:59;;;;;;;;;;;;;;;20.33;53.07;101813.66;4955737;29;19918;-76
2023/07/17 10:09:25;;;;;;;;;;;;;;;20.28;54.15;101798.69;4953660;29;19918;-77
2023/07/17 10:11:51;;;;;;;;;;;;;;;20.35;55.24;101803.69;4955704;29;19925;-77
2023/07/17 10:14:17;;;;;;;;;;;;;;;20.74;52.96;101797.34;4921919;29;19923;-77
2023/07/17 10:16:45;;;;;;;;;;;;;;;20.90;51.79;101802.00;4932952;29;19950;-77
2023/07/17 10:19:10;;;;;;;;;;;;;;;21.01;52.11;101795.09;4936309;29;20355;-77
2023/07/17 10:21:51;;;;;;;;;;;;;;;21.22;52.04;101792.28;4944526;29;20010;-77
2023/07/17 10:24:16;;;;;;;;;;;;;;;21.37;50.16;101809.47;4926795;29;19919;-77
2023/07/17 10:26:45;;;;;;;;;;;;;;;21.21;50.31;101793.22;4936001;29;19981;-77
2023/07/17 10:29:10;;;;;;;;;;;;;;;20.96;49.16;101805.22;4936052;29;19922;-77
2023/07/17 10:31:47;;;;;;;;;;;;;;;21.02;50.86;101807.63;4947526;28;20417;-77
2023/07/17 10:34:14;;;;;;;;;;;;;;;21.38;50.25;101808.50;4925521;29;20227;-77
2023/07/17 10:36:41;;;;;;;;;;;;;;;21.42;50.28;101802.91;4935982;29;20255;-78
2023/07/17 10:39:07;;;;;;;;;;;;;;;21.42;49.42;101791.28;4935703;29;19922;-78
2023/07/17 10:41:35;;;;;;;;;;;;;;;21.46;51.00;101803.63;4935838;29;20284;-78
2023/07/17 10:44:03;;;;;;;;;;;;;;;21.49;48.97;101798.09;4935715;29;19966;-77
2023/07/17 10:46:32;;;;;;;;;;;;;;;21.57;49.74;101797.69;4936007;29;20264;-77
2023/07/17 10:49:08;;;;;;;;;;;;;;;21.71;48.87;101799.63;4935456;29;19919;-78
2023/07/17 10:51:34;;;;;;;;;;;;;;;21.72;48.28;101796.84;4935632;29;19990;-77
2023/07/17 10:53:59;;;;;;;;;;;;;;;21.72;47.47;101806.78;4917955;29;19922;-77
2023/07/17 10:56:25;;;;;;;;;;;;;;;21.48;47.84;101799.88;4934055;29;20259;-77
2023/07/17 10:58:51;;;;;;;;;;;;;;;21.55;48.03;101794.19;4934924;29;20431;-78
2023/07/17 11:01:16;;;;;;;;;;;;;;;21.75;46.79;101802.06;4935306;29;19923;-77
2023/07/17 11:03:47;;;;;;;;;;;;;;;21.89;48.07;101801.34;4917919;29;19923;-77
2023/07/17 11:06:14;;;;;;;;;;;;;;;22.08;47.60;101799.41;4917091;29;19919;-77
2023/07/17 11:08:39;;;;;;;;;;;;;;;22.17;46.62;101807.94;4916229;29;19927;-77
2023/07/17 11:11:04;;;;;;;;;;;;;;;22.25;45.64;101787.66;4936897;29;19922;-78
2023/07/17 11:13:31;;;;;;;;;;;;;;;22.37;46.50;101802.31;4935427;29;20044;-77
2023/07/17 11:16:04;;;;;;;;;;;;;;;22.53;45.45;101794.22;4941660;29;19926;-77
2023/07/17 11:18:30;;;;;;;;;;;;;;;22.79;46.41;101787.31;4954336;29;19941;-77
2023/07/17 11:20:55;;;;;;;;;;;;;;;23.11;44.93;101792.69;4920401;29;19953;-77
2023/07/17 11:23:20;;;;;;;;;;;;;;;23.16;42.57;101794.16;4953857;29;19919;-77
2023/07/17 11:25:46;;;;;;;;;;;;;;;23.21;43.76;101799.28;4946805;29;19918;-76
2023/07/17 11:28:11;;;;;;;;;;;;;;;23.34;41.30;101796.69;4917367;29;19929;-77
2023/07/17 11:30:37;;;;;;;;;;;;;;;23.30;42.14;101789.75;4933188;29;19929;-77
2023/07/17 11:33:07;;;;;;;;;;;;;;;23.16;42.86;101791.44;4901658;29;19978;-77
2023/07/17 11:35:41;;;;;;;;;;;;;;;23.00;43.17;101796.03;4934411;29;19919;-77
2023/07/17 11:38:08;;;;;;;;;;;;;;;23.02;43.14;101787.81;4940844;29;19987;-77
2023/07/17 11:40:48;;;;;;;;;;;;;;;22.86;43.82;101783.28;4951109;29;19923;-78
2023/07/17 11:43:13;;;;;;;;;;;;;;;22.83;43.34;101804.22;4930038;29;20370;-78
2023/07/17 11:45:40;;;;;;;;;;;;;;;22.83;43.54;101791.59;4933033;29;19958;-77
2023/07/17 11:48:05;;;;;;;;;;;;;;;23.04;43.24;101794.00;4934768;29;19926;-77
2023/07/17 11:50:30;;;;;;;;;;;;;;;23.24;43.91;101782.88;4917173;29;19922;-76
2023/07/17 11:53:03;;;;;;;;;;;;;;;23.14;42.87;101796.06;4934453;29;19918;-78
2023/07/17 11:55:38;;;;;;;;;;;;;;;22.98;42.63;101786.28;4934112;29;20357;-78
2023/07/17 11:58:17;;;;;;;;;;;;;;;22.88;44.80;101792.19;4934125;29;20033;-78
2023/07/17 12:00:43;;;;;;;;;;;;;;;22.88;43.02;101792.19;4927951;29;19978;-78
2023/07/17 12:03:08;;;;;;;;;;;;;;;22.76;44.62;101791.06;4934567;29;20315;-78
2023/07/17 12:05:34;;;;;;;;;;;;;;;23.03;45.18;101793.16;4934495;29;20053;-77
2023/07/17 12:08:00;;;;;;;;;;;;;;;23.27;44.55;101789.91;4900523;29;19930;-77
2023/07/17 12:10:25;;;;;;;;;;;;;;;23.22;44.42;101792.03;4916714;29;20287;-77
2023/07/17 12:12:51;;;;;;;;;;;;;;;22.92;45.63;101795.56;4926751;29;20009;-77
2023/07/17 12:15:17;;;;;;;;;;;;;;;22.80;45.21;101789.06;4936366;29;20342;-78
2023/07/17 12:17:42;;;;;;;;;;;;;;;22.63;46.01;101787.34;4943614;29;19922;-78
2023/07/17 12:20:08;;;;;;;;;;;;;;;22.48;46.36;101788.22;4920752;29;20159;-78
2023/07/17 12:22:34;;;;;;;;;;;;;;;22.42;47.30;101785.88;4937409;29;20052;-78
2023/07/17 12:24:59;;;;;;;;;;;;;;;22.52;47.54;101774.44;4935573;29;19926;-77
2023/07/17 12:27:24;;;;;;;;;;;;;;;22.66;47.90;101773.66;4933963;29;19923;-77
2023/07/17 12:29:50;;;;;;;;;;;;;;;23.20;46.89;101778.63;4933636;29;19923;-76